x

West Dixon Entrance (46205) Wave Buoy

12:00am - Fri 25th Apr 2014 All times are PDT. -7 hours from GMT.

  • Sig Wave height 9.5ft
  • Peak Period 14s
  • Wind
    18mph, 25mph gusts
  • Sea Temp 46°f
  • Air Temp 44°f
  • Sea Pressure 1008.9mb
  • West Dixon Entrance
  • West Dixon Entrance

More Historic Weather Station data

Upgrade to MSW Pro to gain access to the past 30 days of data for over 8000 Wavebouys and Weather Stations around the globe.

Join Pro

Comparision Forecast

View Surf forecast
   
Fri 04/25 12:00am 9.5ft 14s 18 25 mph 1008.9mb 46f 44f
Thu 04/24 11:00pm 9.5ft 14s 20 25 mph 1008.3mb 46f 44f
10:00pm 10ft 15s 22 27 mph 1007.6mb 46f 44f
9:00pm 10ft 14s 22 25 mph 1007mb 46f 44f
8:00pm 9ft 16s 22 27 mph 1006.7mb 46f 44f
7:00pm 9.5ft 15s 20 27 mph 1006.8mb 46f 44f
6:00pm 8.5ft 16s 20 25 mph 1006.6mb 46f 44f
5:00pm 8ft 14s 20 22 mph 1006.4mb 46f 44f
4:00pm 9ft 14s 20 25 mph 1005.7mb 46f 44f
3:00pm 8.5ft 16s 20 22 mph 1005.2mb 46f 44f
2:00pm 8ft 15s 20 25 mph 1004.7mb 46f 44f
1:00pm 7ft 17s 18 22 mph 1004.5mb 46f 44f
12:00pm 6.5ft 16s 18 22 mph 1004mb 46f 44f
11:00am 6.5ft 16s 18 20 mph 1003.7mb 46f 44f
10:00am 6ft 15s 18 20 mph 1003.5mb 46f 44f
9:00am 6ft 16s 18 22 mph 1003.2mb 46f 44f
8:00am 5ft 16s 18 22 mph 1003.2mb 46f 43f
7:00am 4.5ft 16s 16 20 mph 1003.2mb 46f 43f
6:00am 4.5ft 16s 18 20 mph 1003.1mb 46f 43f
5:00am 4.5ft 17s 18 20 mph 1003.3mb 46f 43f
4:00am 4ft 17s 18 20 mph 1003.6mb 46f 43f
3:00am 4ft 17s 16 18 mph 1003.7mb 46f 43f
2:00am 4ft 17s 13 18 mph 1004mb 46f 43f
1:00am 3.5ft 17s 13 16 mph 1004.2mb 46f 43f
12:00am 4ft 18s 13 16 mph 1004.5mb 46f 43f
Wed 04/23 11:00pm 4ft 18s 13 16 mph 1004.6mb 46f 43f
10:00pm 4ft 15s 13 16 mph 1004.7mb 47f 44f
9:00pm 4ft 10s 13 16 mph 1004.9mb 47f 44f
8:00pm 4.5ft 11s 13 16 mph 1005.3mb 47f 44f
7:00pm 4ft 9s 11 13 mph 1005.7mb 46f 44f
6:00pm 4ft 10s 9 13 mph 1006.1mb 46f 44f
5:00pm 4.5ft 10s 9 11 mph 1006.7mb 46f 44f
4:00pm 4.5ft 10s 9
mph
1007.2mb 46f 44f
3:00pm 4.5ft 10s 9
mph
1007.7mb 47f 44f
2:00pm 4.5ft 10s 4 7 mph 1008mb 46f 45f
1:00pm 5ft 10s 4 9 mph 1008.3mb 46f 45f
12:00pm 5ft 11s 7 9 mph 1008.2mb 46f 44f
11:00am 5ft 10s 7 9 mph 1008.2mb 46f 44f
10:00am 6ft 10s 4 9 mph 1008.4mb 46f 44f
9:00am 6ft 11s 4 7 mph 1008.6mb 46f 44f
8:00am 6ft 11s 7 9 mph 1008.5mb 46f 44f
7:00am 6.5ft 11s 9
mph
1008.7mb 46f 43f
6:00am 5.5ft 11s 4 7 mph 1009.1mb 46f 43f
5:00am 6.5ft 11s 7 9 mph 1009.5mb 46f 44f
4:00am 6.5ft 10s 2 7 mph 1009.7mb 46f 44f
3:00am 6.5ft 11s 4 7 mph 1009.5mb 46f 43f
2:00am 6.5ft 11s  -  2 mph 1009.7mb 46f 43f
1:00am 7.5ft 11s 2 4 mph 1009.9mb 46f 43f
12:00am 7ft 12s 4
mph
1009.9mb 46f 43f
Tue 04/22 11:00pm 7ft 11s 7 11 mph 1009.8mb 46f 43f
10:00pm 7ft 12s 7 11 mph 1009.8mb 46f 43f
9:00pm 7ft 11s 7 11 mph 1009.4mb 46f 43f
8:00pm 7ft 12s 11 13 mph 1009.2mb 46f 44f
7:00pm 8ft 11s 9 11 mph 1009.4mb 46f 44f
6:00pm 8ft 12s 9 11 mph 1009.5mb 47f 45f
5:00pm 7ft 13s 7 11 mph 1009.4mb 47f 45f
4:00pm 9ft 12s 7 11 mph 1009.7mb 47f 45f
3:00pm 8ft 12s 4 7 mph 1009.8mb 47f 44f
2:00pm 9ft 12s 4 7 mph 1009.7mb 47f 44f
1:00pm 9.5ft 12s 4 7 mph 1009.5mb 46f 44f
12:00pm 9ft 12s 4 9 mph 1009.5mb 46f 44f
11:00am 8.5ft 12s 4 7 mph 1009.5mb 46f 44f
10:00am 8.5ft 12s 7 9 mph 1009.4mb 45f 44f
9:00am 10ft 12s 4 7 mph 1009.4mb 45f 44f
8:00am 9.5ft 13s 4 7 mph 1009.7mb 45f 44f
7:00am 9ft 12s 7 11 mph 1010mb 45f 44f
6:00am 9.5ft 14s 4 9 mph 1010.2mb 45f 43f
5:00am 9ft 12s 4 7 mph 1010.6mb 45f 44f
4:00am 9ft 13s 4 7 mph 1011mb 45f 44f
3:00am 10.5ft 12s 7 11 mph 1011.7mb 45f 43f
2:00am 9.5ft 12s 7 11 mph 1012.2mb 45f 43f
1:00am 11ft 14s 4 9 mph 1012.6mb 45f 44f
12:00am 11ft 14s 7 11 mph 1012.9mb 45f 44f
Mon 04/21 11:00pm 10ft 12s 4 9 mph 1013.2mb 45f 44f
10:00pm 10.5ft 12s 4 9 mph 1013.6mb 45f 44f
9:00pm 11.5ft 11s 4 9 mph 1013.6mb 45f 44f
8:00pm 10ft 13s 7 9 mph 1013.6mb 45f 44f
7:00pm 10.5ft 12s 7 11 mph 1013.9mb 45f 45f
6:00pm 10.5ft 11s 9 11 mph 1014.2mb 45f 45f
5:00pm 10.5ft 12s 11 16 mph 1014.8mb 46f 44f
4:00pm 10ft 11s 7 11 mph 1015.4mb 46f 44f
3:00pm 11ft 13s 9 11 mph 1015.4mb 46f 44f
2:00pm 11ft 11s 11 16 mph 1015.3mb 46f 44f
1:00pm 11ft 13s 16 18 mph 1015.1mb 45f 44f
12:00pm 12ft 12s 13 18 mph 1015.2mb 45f 44f
11:00am 12ft 12s 16 18 mph 1014.8mb 45f 44f
10:00am 13.5ft 10s 16 20 mph 1014.4mb 45f 44f
9:00am 14ft 11s 13 18 mph 1014.2mb 45f 45f